Florence, OR

6:48 PM PDT on August 30, 2014 (GMT -0700)
RAWS DUNES OR US | Change Station
CLOSE
Current Station
Personal Weather Station
Location: Westlake, OR
Elevation: 120 ft
Nearby Weather Stations

Elev 120 ft 43.96 °N, 124.12 °W | Updated 44 minutes ago

Clear
Clear
69.0 °F
Feels Like 69.0 °F
N
3.0
Wind Variable Wind from East
Gusts 8.0 mph

Today
High -- | Low -- °F
--% Chance of Precip.
Yesterday
High -- | Low -- °F
Precip. -- in
6:37 AM 7:55 PM
Waxing Crescent, 26% visible
Pressure 30.04 in
Visibility 10.0 miles
Clouds Clear
Dew Point 61.0 °F
Humidity 76%
Rainfall 0.12 in
Snow Depth Not available.
UV 1 out of 12
Pollen 3.00 out of 12
Air Quality Not available.
Flu Activity Not available.
METAR KOTH 310135Z 29003KT 10SM CLR 19/17 A3004 RMK AO1

More Conditions Fewer Conditions

Pressure 30.04 in
Visibility 10.0 miles
Clouds Clear
Dew Point 61.0 °F
Humidity 76%
Rainfall 0.12 in
Snow Depth Not available.
UV 1 out of 12
Pollen 3.00 out of 12
Air Quality Not available.
Flu Activity Not available.
METAR KOTH 310135Z 29003KT 10SM CLR 19/17 A3004 RMK AO1

More Conditions Fewer Conditions

10-Day Weather Forecast

Almanac

Astronomy

Aug. 30, 2014 Rise Set
Actual Time 6:37 AM PDT 7:55 PM PDT
Civil Twilight 6:07 AM PDT 8:25 PM PDT
Nautical Twilight 5:31 AM PDT 9:01 PM PDT
Astronomical Twilight 4:53 AM PDT 9:39 PM PDT
Moon 11:42 AM PDT (8/30) 10:21 PM PDT (8/30)
Length of Visible Light 14h 17m
Length of Day
13h 18m
Tomorrow will be 2m 55s shorter.
Waxing Crescent, 26% of the Moon is Illuminated
Today
Waxing Crescent
Sep 2
First Quarter
Sep 8
Full
Sep 15
Last Quarter
Sep 24
New

Today's Extremes

State Highs State Lows

Community

WunderPhotos

Upload Photos

1,748,720 photos uploaded!

Nearby

Snow Depth

Station Depth Elevation
Holland Meadows 0 in 4900 ft
Roaring River 0 in 4900 ft
Salt Creek Falls 0 in 4000 ft
Cascade Summit 0 in 4880 ft
Irish Taylor 0 in 5500 ft

Earthquake Activity

City Distance Mag. Time & Date
No recent earthquake activity has been reported nearby.
Minimum magnitude displayed is 2.5.

Coastal Water Temperatures

Place Temperature
Port Orford, OR 54.0 °F
Charleston, OR 54.0 °F
South Beach, OR 53.1 °F

Nearby Weather Stations